Time;durP1;ratioP1;P1;durP2;ratioP2;P2;SDS_P1;SDS_P2;PMS_P1;PMS_P2;Temp;Humidity;BMP_temperature;BMP_pressure;BME280_temperature;BME280_humidity;BME280_pressure;Samples;Min_cycle;Max_cycle;Signal;HPM_P1;HPM_P2
2023/03/28 00:01:05;;;;;;;3.97;1.95;;;4.60;92.70;;;;;;4974667;28;20505;-75
2023/03/28 00:03:34;;;;;;;12.32;4.70;;;4.70;91.90;;;;;;4971508;28;20034;-75
2023/03/28 00:06:01;;;;;;;10.32;4.40;;;4.60;92.60;;;;;;4975116;28;20442;-75
2023/03/28 00:08:28;;;;;;;3.90;2.15;;;4.60;93.00;;;;;;4971238;28;20078;-75
2023/03/28 00:11:04;;;;;;;7.30;2.80;;;4.70;91.90;;;;;;4975279;28;20038;-74
2023/03/28 00:13:30;;;;;;;3.55;1.90;;;4.70;92.00;;;;;;4975350;28;20074;-76
2023/03/28 00:16:02;;;;;;;4.13;1.80;;;4.80;91.70;;;;;;4973439;28;20034;-73
2023/03/28 00:18:29;;;;;;;3.70;1.75;;;4.80;92.00;;;;;;4973905;28;20069;-72
2023/03/28 00:20:55;;;;;;;8.48;3.53;;;4.80;91.60;;;;;;4974531;28;20018;-73
2023/03/28 00:23:20;;;;;;;5.70;1.70;;;4.80;92.00;;;;;;4974416;28;20033;-73
2023/03/28 00:25:47;;;;;;;4.65;2.20;;;4.90;91.00;;;;;;4975434;28;20471;-73
2023/03/28 00:28:13;;;;;;;7.38;2.67;;;4.80;91.50;;;;;;4966541;28;20035;-74
2023/03/28 00:30:39;;;;;;;13.88;4.60;;;4.80;91.10;;;;;;4973732;28;20023;-74
2023/03/28 00:33:05;;;;;;;9.55;4.10;;;4.80;91.20;;;;;;4970624;28;20023;-72
2023/03/28 00:35:32;;;;;;;4.50;2.03;;;4.80;91.20;;;;;;4974432;28;20097;-74
2023/03/28 00:37:58;;;;;;;16.85;6.55;;;4.70;91.20;;;;;;4974002;28;20031;-73
2023/03/28 00:40:25;;;;;;;8.38;3.35;;;4.60;91.90;;;;;;4969374;28;20046;-73
2023/03/28 00:42:52;;;;;;;14.13;5.28;;;4.60;91.00;;;;;;4961398;28;20087;-74
2023/03/28 00:45:20;;;;;;;30.60;11.95;;;4.60;92.00;;;;;;4954432;29;20460;-74
2023/03/28 00:47:56;;;;;;;76.75;31.35;;;4.50;92.10;;;;;;4967722;28;20094;-71
2023/03/28 00:50:38;;;;;;;48.47;20.48;;;4.40;92.20;;;;;;4950651;29;20391;-74
2023/03/28 00:53:09;;;;;;;68.43;30.08;;;4.30;92.60;;;;;;4954013;29;20114;-73
2023/03/28 00:55:39;;;;;;;24.25;9.88;;;4.20;92.90;;;;;;4946919;29;20027;-71
2023/03/28 00:58:12;;;;;;;29.15;13.98;;;4.20;93.10;;;;;;4954624;29;20027;-72
2023/03/28 01:00:41;;;;;;;18.88;8.27;;;4.10;93.40;;;;;;4954139;29;20440;-71
2023/03/28 01:03:12;;;;;;;9.98;5.53;;;4.00;93.70;;;;;;4955036;29;20030;-73
2023/03/28 01:05:41;;;;;;;4.93;3.00;;;3.90;93.90;;;;;;4938034;29;20034;-72
2023/03/28 01:08:29;;;;;;;5.95;2.63;;;3.90;94.20;;;;;;4966919;28;21374;-72
2023/03/28 01:10:55;;;;;;;5.05;1.83;;;3.80;94.60;;;;;;4952160;29;20479;-73
2023/03/28 01:13:29;;;;;;;4.25;2.15;;;3.80;94.70;;;;;;4953547;29;20051;-73
2023/03/28 01:15:55;;;;;;;4.55;2.65;;;3.80;94.80;;;;;;4954272;29;20439;-70
2023/03/28 01:18:22;;;;;;;10.00;3.83;;;3.70;95.20;;;;;;4947581;29;20027;-73
2023/03/28 01:21:04;;;;;;;8.10;3.60;;;3.70;95.60;;;;;;4953247;29;20023;-73
2023/03/28 01:23:54;;;;;;;3.03;1.88;;;3.60;96.00;;;;;;4937677;29;20038;-73
2023/03/28 01:27:00;;;;;;;4.47;2.30;;;3.50;96.40;;;;;;4954584;29;20435;-71
2023/03/28 01:29:29;;;;;;;3.35;2.22;;;3.50;96.80;;;;;;4931615;29;20101;-75
2023/03/28 01:32:38;;;;;;;3.58;1.80;;;3.50;97.20;;;;;;4937332;29;20054;-74
2023/03/28 01:35:54;;;;;;;2.65;1.70;;;3.50;97.60;;;;;;4941732;29;20039;-73
2023/03/28 01:38:24;;;;;;;2.10;1.85;;;3.40;98.60;;;;;;4949493;29;20030;-75
2023/03/28 01:41:10;;;;;;;5.30;2.63;;;3.30;99.30;;;;;;4936149;29;20042;-76
2023/03/28 01:44:13;;;;;;;3.90;2.13;;;3.30;99.70;;;;;;4932151;29;20799;-74
2023/03/28 01:46:48;;;;;;;3.40;2.40;;;3.30;99.90;;;;;;4871330;29;20042;-72
2023/03/28 01:49:22;;;;;;;4.57;2.47;;;3.30;99.90;;;;;;4876747;29;20545;-75
2023/03/28 01:51:57;;;;;;;5.50;2.78;;;3.30;99.90;;;;;;4876215;29;20123;-75
2023/03/28 01:54:37;;;;;;;3.75;2.03;;;3.30;99.90;;;;;;4876570;29;20073;-75
2023/03/28 01:57:10;;;;;;;3.72;1.92;;;3.30;99.90;;;;;;4876478;29;20045;-75
2023/03/28 01:59:49;;;;;;;3.45;1.90;;;3.20;99.90;;;;;;4876026;29;20057;-76
2023/03/28 02:02:31;;;;;;;5.20;2.28;;;3.30;99.90;;;;;;4875853;29;20029;-74
2023/03/28 02:05:18;;;;;;;3.45;1.85;;;3.30;99.90;;;;;;4876572;29;20037;-72
2023/03/28 02:07:47;;;;;;;5.47;2.20;;;3.30;99.90;;;;;;4860590;29;20037;-72
2023/03/28 02:10:16;;;;;;;4.30;2.40;;;3.20;99.90;;;;;;4876377;29;20115;-74
2023/03/28 02:13:04;;;;;;;6.47;2.78;;;3.30;99.90;;;;;;4882079;29;20044;-75
2023/03/28 02:15:45;;;;;;;2.45;2.03;;;3.20;99.90;;;;;;4879213;29;20036;-72
2023/03/28 02:18:30;;;;;;;4.35;1.83;;;3.20;99.90;;;;;;4879067;29;20552;-72
2023/03/28 02:21:23;;;;;;;3.85;2.03;;;3.20;99.90;;;;;;4894713;29;20037;-73
2023/03/28 02:24:19;;;;;;;2.20;1.92;;;3.20;99.90;;;;;;4952857;28;20034;-75
2023/03/28 02:27:02;;;;;;;5.53;2.00;;;3.20;99.90;;;;;;4952671;28;20097;-75
2023/03/28 02:29:49;;;;;;;5.05;2.40;;;3.10;99.90;;;;;;4968306;28;20106;-75
2023/03/28 02:32:20;;;;;;;3.90;1.98;;;3.20;99.90;;;;;;4936284;29;20069;-75
2023/03/28 02:34:50;;;;;;;4.97;1.63;;;3.20;99.90;;;;;;4936745;29;20030;-74
2023/03/28 02:37:50;;;;;;;6.75;2.42;;;3.20;99.90;;;;;;4953982;29;20035;-74
2023/03/28 02:40:28;;;;;;;5.45;2.45;;;3.10;99.90;;;;;;4936309;29;20031;-74
2023/03/28 02:43:13;;;;;;;3.00;1.90;;;3.20;99.90;;;;;;4968458;28;20061;-75
2023/03/28 02:46:09;;;;;;;5.10;2.47;;;3.10;99.90;;;;;;4943362;29;20122;-75
2023/03/28 02:48:47;;;;;;;5.03;2.50;;;3.10;99.90;;;;;;4952124;29;20043;-75
2023/03/28 02:51:22;;;;;;;4.03;2.10;;;3.10;99.90;;;;;;4979754;28;20034;-71
2023/03/28 02:53:54;;;;;;;4.57;2.35;;;3.10;99.90;;;;;;4950930;29;20038;-75
2023/03/28 02:57:11;;;;;;;3.53;2.05;;;3.10;99.90;;;;;;4945858;29;20061;-75
2023/03/28 02:59:56;;;;;;;4.10;2.25;;;3.10;99.90;;;;;;4896511;29;20037;-75
2023/03/28 03:02:22;;;;;;;5.03;2.58;;;3.10;99.90;;;;;;4896194;29;20164;-75
2023/03/28 03:04:56;;;;;;;5.30;2.63;;;3.00;99.90;;;;;;4882590;29;20040;-74
2023/03/28 03:07:23;;;;;;;8.82;3.70;;;3.10;99.90;;;;;;4898116;29;20036;-74
2023/03/28 03:09:52;;;;;;;9.90;2.58;;;3.00;99.90;;;;;;4882331;29;20497;-74
2023/03/28 03:12:22;;;;;;;3.47;2.42;;;3.00;99.90;;;;;;4897910;29;20477;-75
2023/03/28 03:14:53;;;;;;;5.07;2.55;;;3.00;99.90;;;;;;4881556;29;20055;-74
2023/03/28 03:17:39;;;;;;;6.40;2.78;;;3.00;99.90;;;;;;4885002;29;20131;-75
2023/03/28 03:20:06;;;;;;;6.45;2.30;;;3.00;99.90;;;;;;4897735;29;20137;-75
2023/03/28 03:22:36;;;;;;;3.25;2.53;;;3.00;99.90;;;;;;4886103;29;20029;-75
2023/03/28 03:25:06;;;;;;;4.55;2.60;;;3.00;99.90;;;;;;4897434;29;20081;-74
2023/03/28 03:27:42;;;;;;;4.75;2.70;;;3.00;99.90;;;;;;4897427;29;20511;-74
2023/03/28 03:30:10;;;;;;;4.22;2.58;;;2.90;99.90;;;;;;4921095;29;20462;-74
2023/03/28 03:32:56;;;;;;;4.43;2.40;;;2.90;99.90;;;;;;4955973;29;20043;-75
2023/03/28 03:35:27;;;;;;;7.07;3.03;;;2.90;99.90;;;;;;4938966;29;20550;-74
2023/03/28 03:37:56;;;;;;;5.80;2.90;;;2.90;99.90;;;;;;4955457;29;20036;-74
2023/03/28 03:40:24;;;;;;;3.10;2.20;;;2.80;99.90;;;;;;4958410;28;20020;-75
2023/03/28 03:42:50;;;;;;;3.88;2.20;;;2.80;99.90;;;;;;4955163;29;20090;-75
2023/03/28 03:45:16;;;;;;;5.10;2.40;;;2.80;99.90;;;;;;4955358;28;20063;-75
2023/03/28 03:47:42;;;;;;;4.63;2.70;;;2.70;99.90;;;;;;4961242;28;20082;-75
2023/03/28 03:50:09;;;;;;;5.90;2.92;;;2.70;99.90;;;;;;4954599;29;20023;-75
2023/03/28 03:52:36;;;;;;;5.82;2.55;;;2.70;99.90;;;;;;4925251;29;20032;-74
2023/03/28 03:55:02;;;;;;;8.57;3.05;;;2.70;99.90;;;;;;4926919;29;20038;-74
2023/03/28 03:57:39;;;;;;;8.82;2.95;;;2.60;99.90;;;;;;4954752;29;20395;-74
2023/03/28 04:00:11;;;;;;;3.15;2.50;;;2.60;99.90;;;;;;4954540;29;20038;-74
2023/03/28 04:02:46;;;;;;;6.63;2.80;;;2.60;99.90;;;;;;4956621;28;20043;-74
2023/03/28 04:05:17;;;;;;;4.43;2.80;;;2.50;99.90;;;;;;4926069;29;20110;-75
2023/03/28 04:07:49;;;;;;;6.20;3.40;;;2.60;99.90;;;;;;4954613;29;20099;-71
2023/03/28 04:10:26;;;;;;;7.03;3.22;;;2.50;99.90;;;;;;4953503;28;20399;-74
2023/03/28 04:12:53;;;;;;;5.95;3.10;;;2.60;99.90;;;;;;4968359;28;20529;-75
2023/03/28 04:15:19;;;;;;;5.95;3.47;;;2.60;99.90;;;;;;4970769;28;20032;-72
2023/03/28 04:18:07;;;;;;;7.32;3.83;;;2.50;99.90;;;;;;4955698;29;20198;-73
2023/03/28 04:20:39;;;;;;;6.38;3.10;;;2.50;99.90;;;;;;4925737;29;20078;-75
2023/03/28 04:23:08;;;;;;;5.97;3.45;;;2.50;99.90;;;;;;4937823;29;20174;-73
2023/03/28 04:25:35;;;;;;;8.40;3.45;;;2.50;99.90;;;;;;4936179;29;20055;-75
2023/03/28 04:28:18;;;;;;;7.10;4.05;;;2.50;99.90;;;;;;4938456;29;20090;-74
2023/03/28 04:31:07;;;;;;;;;;;;;;;;;;;;;
2023/03/28 04:34:04;;;;;;;4.78;2.80;;;2.60;99.90;;;;;;4925596;29;20035;-74
2023/03/28 04:36:33;;;;;;;7.07;3.35;;;2.50;99.90;;;;;;4937877;29;20043;-74
2023/03/28 04:39:02;;;;;;;6.28;3.47;;;2.50;99.90;;;;;;4953193;29;20024;-74
2023/03/28 04:41:48;;;;;;;8.15;3.72;;;2.60;99.90;;;;;;4962942;28;20113;-74
2023/03/28 04:44:28;;;;;;;9.10;3.72;;;2.50;99.90;;;;;;4947616;28;20034;-73
2023/03/28 04:47:07;;;;;;;9.18;4.72;;;2.60;99.90;;;;;;4957351;28;20141;-74
2023/03/28 04:49:33;;;;;;;8.63;4.43;;;3.00;99.90;;;;;;4956460;28;20494;-73
2023/03/28 04:52:00;;;;;;;6.53;3.60;;;3.60;99.90;;;;;;4968687;28;20046;-74
2023/03/28 04:54:26;;;;;;;9.43;4.93;;;3.90;99.90;;;;;;4969570;28;20482;-74
2023/03/28 04:57:14;;;;;;;5.57;3.22;;;4.30;99.90;;;;;;4956776;28;20089;-74
2023/03/28 04:59:45;;;;;;;10.52;3.95;;;4.50;99.90;;;;;;4973604;28;20065;-73
2023/03/28 05:02:35;;;;;;;7.78;3.83;;;4.60;99.90;;;;;;4971951;28;20045;-74
2023/03/28 05:05:05;;;;;;;7.88;4.50;;;4.60;99.90;;;;;;4948620;28;20078;-74
2023/03/28 05:07:31;;;;;;;7.68;3.80;;;4.80;99.90;;;;;;4956866;28;20046;-74
2023/03/28 05:09:57;;;;;;;5.72;3.85;;;5.30;99.20;;;;;;4956693;28;20023;-74
2023/03/28 05:12:31;;;;;;;7.07;4.38;;;5.40;98.90;;;;;;4956332;28;20027;-74
2023/03/28 05:15:02;;;;;;;7.00;4.30;;;5.70;97.70;;;;;;4960113;28;20027;-74
2023/03/28 05:17:30;;;;;;;13.50;6.97;;;5.80;97.10;;;;;;4954262;28;20069;-74
2023/03/28 05:19:59;;;;;;;8.90;5.13;;;5.70;97.00;;;;;;4969429;28;20031;-73
2023/03/28 05:22:31;;;;;;;7.95;5.15;;;6.10;96.70;;;;;;4952226;29;20121;-74
2023/03/28 05:24:59;;;;;;;8.63;4.78;;;6.10;95.50;;;;;;4971136;28;20037;-74
2023/03/28 05:27:25;;;;;;;7.25;4.10;;;6.60;95.40;;;;;;4955867;28;20038;-74
2023/03/28 05:29:51;;;;;;;5.68;4.00;;;6.50;94.60;;;;;;4971336;28;20030;-71
2023/03/28 05:32:17;;;;;;;6.57;4.80;;;6.50;94.30;;;;;;4950629;28;20027;-74
2023/03/28 05:34:45;;;;;;;6.07;3.95;;;6.50;94.60;;;;;;4969323;28;20023;-74
2023/03/28 05:37:10;;;;;;;7.75;3.60;;;6.60;94.40;;;;;;4955436;28;20030;-72
2023/03/28 05:39:47;;;;;;;8.95;3.22;;;6.90;94.10;;;;;;4956165;28;20031;-75
2023/03/28 05:42:14;;;;;;;8.43;3.78;;;6.40;94.10;;;;;;4970831;28;20038;-72
2023/03/28 05:44:40;;;;;;;8.18;3.40;;;5.60;95.00;;;;;;4955929;28;20475;-73
2023/03/28 05:47:25;;;;;;;8.52;3.20;;;5.10;96.00;;;;;;4973816;28;20133;-73
2023/03/28 05:49:59;;;;;;;6.45;3.28;;;4.90;97.90;;;;;;4973238;28;20102;-73
2023/03/28 05:52:25;;;;;;;6.97;3.20;;;4.60;98.90;;;;;;4955436;28;20027;-72
2023/03/28 05:54:50;;;;;;;5.63;2.80;;;4.60;99.30;;;;;;4947992;28;20033;-72
2023/03/28 05:57:18;;;;;;;9.00;3.70;;;4.50;99.90;;;;;;4945934;28;20035;-74
2023/03/28 05:59:48;;;;;;;8.48;3.08;;;4.50;99.90;;;;;;4949329;28;20117;-73
2023/03/28 06:02:24;;;;;;;6.22;3.15;;;4.60;99.90;;;;;;4955645;28;20030;-72
2023/03/28 06:04:56;;;;;;;6.85;3.13;;;4.60;99.90;;;;;;4971319;28;20109;-70
2023/03/28 06:07:22;;;;;;;5.88;2.92;;;4.70;99.90;;;;;;4968737;28;20077;-71
2023/03/28 06:09:48;;;;;;;6.20;3.30;;;4.60;99.90;;;;;;4956415;28;20035;-74
2023/03/28 06:12:15;;;;;;;9.60;3.42;;;4.80;99.90;;;;;;4971840;28;20031;-73
2023/03/28 06:14:47;;;;;;;;;;;4.90;99.90;;;;;;4971021;28;20482;-73
2023/03/28 06:17:25;;;;;;;6.07;2.70;;;4.80;99.90;;;;;;4968374;28;19969;-72
2023/03/28 06:19:55;;;;;;;4.97;2.53;;;4.80;99.90;;;;;;4946866;28;20117;-72
2023/03/28 06:22:22;;;;;;;20.02;9.50;;;4.80;99.90;;;;;;4955536;28;20058;-73
2023/03/28 06:24:54;;;;;;;10.25;4.65;;;4.80;99.50;;;;;;4971209;28;20031;-72
2023/03/28 06:27:30;;;;;;;14.95;5.55;;;4.90;99.90;;;;;;4955352;28;20041;-73
2023/03/28 06:29:57;;;;;;;6.55;3.45;;;5.00;99.90;;;;;;4956151;28;20023;-72
2023/03/28 06:32:23;;;;;;;6.93;3.58;;;5.20;99.30;;;;;;4970156;28;20065;-72
2023/03/28 06:34:49;;;;;;;5.30;3.03;;;5.10;99.00;;;;;;4964780;28;20030;-73
2023/03/28 06:37:15;;;;;;;6.38;2.90;;;5.20;98.70;;;;;;4955223;28;20046;-73
2023/03/28 06:40:10;;;;;;;7.22;3.67;;;5.10;97.60;;;;;;4932210;29;20034;-70
2023/03/28 06:42:47;;;;;;;8.32;3.10;;;5.00;97.50;;;;;;4926340;29;20095;-73
2023/03/28 06:45:18;;;;;;;5.07;3.22;;;5.20;97.20;;;;;;4932431;29;20592;-74
2023/03/28 06:47:50;;;;;;;5.47;2.80;;;5.30;97.10;;;;;;4932088;29;20187;-74
2023/03/28 06:50:19;;;;;;;5.63;3.22;;;5.20;96.80;;;;;;4937457;28;20590;-74
2023/03/28 06:52:56;;;;;;;8.25;3.20;;;5.40;98.30;;;;;;4938636;29;20153;-74
2023/03/28 06:55:22;;;;;;;5.78;3.20;;;5.40;97.90;;;;;;4903893;29;20609;-73
2023/03/28 06:57:48;;;;;;;6.47;3.65;;;5.60;97.20;;;;;;4932477;29;20035;-72
2023/03/28 07:00:28;;;;;;;5.60;3.00;;;5.20;96.70;;;;;;4930927;29;20023;-72
2023/03/28 07:03:13;;;;;;;4.00;2.40;;;5.10;96.20;;;;;;4932365;29;20388;-72
2023/03/28 07:05:40;;;;;;;5.53;2.92;;;5.10;96.60;;;;;;4932475;29;20140;-71
2023/03/28 07:08:08;;;;;;;5.85;3.25;;;5.20;97.00;;;;;;4932066;29;20437;-74
2023/03/28 07:10:35;;;;;;;9.35;4.22;;;5.20;97.10;;;;;;4932401;29;20055;-73
2023/03/28 07:13:01;;;;;;;7.97;4.20;;;5.00;97.20;;;;;;4931771;29;20050;-73
2023/03/28 07:15:27;;;;;;;12.13;5.63;;;5.10;97.70;;;;;;4916239;29;20064;-72
2023/03/28 07:17:53;;;;;;;6.60;3.70;;;5.30;98.80;;;;;;4966106;28;20042;-73
2023/03/28 07:20:20;;;;;;;7.30;4.00;;;5.50;98.10;;;;;;4969931;28;20025;-73
2023/03/28 07:22:46;;;;;;;7.32;3.75;;;5.40;97.50;;;;;;4948717;28;20062;-73
2023/03/28 07:25:12;;;;;;;5.72;3.50;;;5.40;97.40;;;;;;4972738;28;20027;-73
2023/03/28 07:27:38;;;;;;;5.90;3.17;;;5.20;97.90;;;;;;4971042;28;20050;-71
2023/03/28 07:30:07;;;;;;;7.88;3.97;;;5.20;96.60;;;;;;4972090;28;20466;-70
2023/03/28 07:32:35;;;;;;;5.78;3.20;;;5.20;96.80;;;;;;4969793;28;20031;-73
2023/03/28 07:35:07;;;;;;;7.13;3.30;;;5.10;96.70;;;;;;4971254;28;20027;-74
2023/03/28 07:37:39;;;;;;;8.10;3.70;;;5.20;96.80;;;;;;4955239;28;20065;-72
2023/03/28 07:40:11;;;;;;;4.55;2.70;;;5.30;98.30;;;;;;4955119;28;20081;-73
2023/03/28 07:42:39;;;;;;;6.25;3.22;;;5.40;97.90;;;;;;4954245;28;20051;-74
2023/03/28 07:45:06;;;;;;;4.72;2.70;;;5.70;97.70;;;;;;4972691;28;20478;-74
2023/03/28 07:47:32;;;;;;;6.47;3.03;;;5.70;96.10;;;;;;4954423;28;20054;-74
2023/03/28 07:49:57;;;;;;;9.85;4.03;;;5.70;97.10;;;;;;4967354;28;20027;-73
2023/03/28 07:52:30;;;;;;;5.80;3.42;;;5.80;96.60;;;;;;4954921;28;20075;-70
2023/03/28 07:54:56;;;;;;;6.50;4.03;;;5.80;96.10;;;;;;4958078;28;20031;-71
2023/03/28 07:57:23;;;;;;;7.90;3.65;;;5.80;96.40;;;;;;4969250;28;20027;-72
2023/03/28 08:00:11;;;;;;;7.50;3.47;;;6.10;97.30;;;;;;4964895;28;20030;-73
2023/03/28 08:02:40;;;;;;;5.28;3.38;;;6.40;95.50;;;;;;4975702;28;20067;-74
2023/03/28 08:05:07;;;;;;;7.55;3.80;;;6.20;94.80;;;;;;4974365;28;20023;-73
2023/03/28 08:07:33;;;;;;;4.70;2.85;;;6.20;95.00;;;;;;4974864;28;20046;-72
2023/03/28 08:10:00;;;;;;;4.13;2.40;;;6.20;94.40;;;;;;4955979;28;20482;-73
2023/03/28 08:12:28;;;;;;;6.88;3.83;;;6.40;93.60;;;;;;4956205;28;20042;-73
2023/03/28 08:14:54;;;;;;;4.43;2.97;;;6.20;93.50;;;;;;4975497;28;20467;-74
2023/03/28 08:17:22;;;;;;;6.65;3.25;;;6.20;93.60;;;;;;4955476;28;20165;-74
2023/03/28 08:19:49;;;;;;;4.57;2.58;;;6.50;93.60;;;;;;4973944;28;20113;-73
2023/03/28 08:22:34;;;;;;;3.42;2.30;;;6.10;92.20;;;;;;4973103;28;20037;-72
2023/03/28 08:25:32;;;;;;;4.03;2.75;;;6.10;91.30;;;;;;4949094;28;20035;-71
2023/03/28 08:28:00;;;;;;;5.68;2.55;;;6.20;92.20;;;;;;4944371;28;20039;-73
2023/03/28 08:30:25;;;;;;;5.03;2.53;;;6.80;94.40;;;;;;4952868;28;20031;-73
2023/03/28 08:32:56;;;;;;;7.40;3.33;;;7.10;93.10;;;;;;4956729;28;20066;-72
2023/03/28 08:35:22;;;;;;;7.25;4.07;;;6.90;92.80;;;;;;4974858;28;20104;-73
2023/03/28 08:37:51;;;;;;;5.80;2.50;;;6.90;92.50;;;;;;4973670;28;20038;-73
2023/03/28 08:40:19;;;;;;;3.55;2.45;;;7.30;92.10;;;;;;4957672;28;20391;-72
2023/03/28 08:43:10;;;;;;;6.13;2.13;;;7.20;90.40;;;;;;4973223;28;20082;-73
2023/03/28 08:45:56;;;;;;;4.65;2.92;;;7.20;89.10;;;;;;4974693;28;20062;-70
2023/03/28 08:48:26;;;;;;;3.03;2.10;;;7.00;88.20;;;;;;4973781;28;20122;-73
2023/03/28 08:51:20;;;;;;;6.25;2.92;;;7.10;89.30;;;;;;4973492;28;20034;-73
2023/03/28 08:54:16;;;;;;;10.25;3.05;;;6.80;89.60;;;;;;4964656;28;20045;-72
2023/03/28 08:56:47;;;;;;;5.25;2.05;;;7.00;89.80;;;;;;4914590;29;20112;-72
2023/03/28 08:59:17;;;;;;;4.95;2.38;;;7.20;88.10;;;;;;4899347;29;20043;-72
2023/03/28 09:01:43;;;;;;;3.83;2.08;;;7.10;86.40;;;;;;4915026;29;20060;-73
2023/03/28 09:04:30;;;;;;;4.07;2.25;;;7.40;88.20;;;;;;4915047;29;20035;-71
2023/03/28 09:07:17;;;;;;;4.03;2.35;;;7.40;87.10;;;;;;4915133;29;20416;-72
2023/03/28 09:10:00;;;;;;;2.80;1.90;;;7.60;85.00;;;;;;4914846;29;20024;-74
2023/03/28 09:13:01;;;;;;;3.92;2.08;;;7.80;82.90;;;;;;4895774;29;20095;-72
2023/03/28 09:15:48;;;;;;;5.93;2.92;;;7.90;84.00;;;;;;4878155;29;20120;-72
2023/03/28 09:18:22;;;;;;;4.70;2.45;;;7.80;83.60;;;;;;4880381;29;20041;-74
2023/03/28 09:20:58;;;;;;;2.72;2.20;;;7.70;82.50;;;;;;4876967;29;20497;-72
2023/03/28 09:23:48;;;;;;;6.53;2.47;;;7.90;84.90;;;;;;4889614;29;20041;-71
2023/03/28 09:26:22;;;;;;;4.65;1.85;;;8.00;85.30;;;;;;4895788;29;20029;-71
2023/03/28 09:29:07;;;;;;;4.93;2.70;;;7.70;81.20;;;;;;4895453;29;20051;-72
2023/03/28 09:31:45;;;;;;;5.43;3.13;;;7.90;81.00;;;;;;4895563;29;20495;-73
2023/03/28 09:34:39;;;;;;;6.00;2.08;;;8.20;84.80;;;;;;4902624;29;20031;-72
2023/03/28 09:37:33;;;;;;;7.10;2.80;;;8.30;81.80;;;;;;4917298;29;20032;-71
2023/03/28 09:40:15;;;;;;;4.47;1.75;;;8.10;79.30;;;;;;4912752;29;20074;-73
2023/03/28 09:43:06;;;;;;;3.08;1.88;;;8.20;78.30;;;;;;4932694;29;20051;-72
2023/03/28 09:45:53;;;;;;;;;;;8.40;78.90;;;;;;4917768;29;20375;-72
2023/03/28 09:48:38;;;;;;;6.47;3.20;;;8.30;80.30;;;;;;4921582;29;19935;-74
2023/03/28 09:51:16;;;;;;;4.97;2.33;;;8.10;82.40;;;;;;4950449;28;20123;-73
2023/03/28 09:53:42;;;;;;;3.80;1.73;;;7.80;79.60;;;;;;4956307;28;20038;-73
2023/03/28 09:56:23;;;;;;;4.38;2.13;;;7.50;79.00;;;;;;4956182;28;20026;-73
2023/03/28 09:59:01;;;;;;;2.45;1.48;;;7.50;78.10;;;;;;4973553;28;20114;-72
2023/03/28 10:01:51;;;;;;;5.18;1.95;;;7.80;77.10;;;;;;4955982;28;20571;-73
2023/03/28 10:04:38;;;;;;;6.03;2.08;;;8.30;78.60;;;;;;4973207;28;20041;-72
2023/03/28 10:07:41;;;;;;;6.70;2.42;;;8.30;76.80;;;;;;4972271;28;20042;-73
2023/03/28 10:10:23;;;;;;;4.35;2.25;;;8.00;80.30;;;;;;4972237;28;20041;-71
2023/03/28 10:13:18;;;;;;;3.60;1.80;;;7.80;81.30;;;;;;4895024;29;20055;-73
2023/03/28 10:15:49;;;;;;;1.50;1.33;;;7.60;78.20;;;;;;4879091;29;20091;-72
2023/03/28 10:18:20;;;;;;;2.65;2.03;;;7.60;78.90;;;;;;4895072;29;20405;-73
2023/03/28 10:21:05;;;;;;;3.70;2.10;;;8.00;77.90;;;;;;4895068;29;20175;-74
2023/03/28 10:23:31;;;;;;;2.05;1.65;;;8.20;76.20;;;;;;4879256;29;20036;-73
2023/03/28 10:26:02;;;;;;;5.88;2.20;;;8.60;76.80;;;;;;4879223;29;20013;-73
2023/03/28 10:28:32;;;;;;;5.00;1.58;;;8.60;76.40;;;;;;4894667;29;20045;-73
2023/03/28 10:31:00;;;;;;;7.68;2.33;;;8.40;76.60;;;;;;4894970;29;20378;-73
2023/03/28 10:33:40;;;;;;;3.33;2.20;;;8.00;77.30;;;;;;4878884;29;20035;-74
2023/03/28 10:36:43;;;;;;;6.82;2.10;;;8.00;79.00;;;;;;4894629;29;20051;-73
2023/03/28 10:39:25;;;;;;;3.92;1.52;;;8.10;79.50;;;;;;4893230;29;20541;-73
2023/03/28 10:42:10;;;;;;;2.75;1.40;;;7.90;76.20;;;;;;4894566;29;20469;-72
2023/03/28 10:45:03;;;;;;;1.20;1.10;;;7.80;76.80;;;;;;4894322;29;20425;-72
2023/03/28 10:47:33;;;;;;;2.55;1.50;;;7.70;76.10;;;;;;4878932;29;20044;-74
2023/03/28 10:50:05;;;;;;;3.97;2.00;;;7.80;77.20;;;;;;4921293;28;20035;-73
2023/03/28 10:52:43;;;;;;;1.60;1.40;;;8.20;77.80;;;;;;4952218;29;20038;-72
2023/03/28 10:55:23;;;;;;;1.95;1.40;;;8.40;76.20;;;;;;4952051;29;20110;-72
2023/03/28 10:58:21;;;;;;;4.15;2.17;;;8.60;75.40;;;;;;4953188;28;20039;-74
2023/03/28 11:01:19;;;;;;;3.45;1.55;;;8.80;76.80;;;;;;4960032;28;20442;-74
2023/03/28 11:04:11;;;;;;;3.85;2.20;;;8.90;74.40;;;;;;4952480;29;20487;-74
2023/03/28 11:06:45;;;;;;;2.75;1.50;;;9.00;73.80;;;;;;4968386;28;20031;-73
2023/03/28 11:09:25;;;;;;;2.45;1.55;;;8.90;72.00;;;;;;4968122;28;20052;-74
2023/03/28 11:12:46;;;;;;;4.80;1.70;;;8.30;73.50;;;;;;4943990;29;20058;-73
2023/03/28 11:15:25;;;;;;;1.70;1.25;;;7.90;76.00;;;;;;4894306;29;20759;-73
2023/03/28 11:18:08;;;;;;;3.13;1.67;;;8.00;75.60;;;;;;4894381;29;20036;-73
2023/03/28 11:20:57;;;;;;;3.03;1.60;;;8.40;75.70;;;;;;4897821;29;20424;-73
2023/03/28 11:23:32;;;;;;;4.13;2.42;;;8.60;77.40;;;;;;4897731;29;20611;-73
2023/03/28 11:26:25;;;;;;;2.97;1.42;;;8.60;76.10;;;;;;4897667;29;20378;-73
2023/03/28 11:29:48;;;;;;;1.77;1.35;;;8.30;75.80;;;;;;4898339;29;20067;-74
2023/03/28 11:32:27;;;;;;;5.90;1.70;;;8.30;75.00;;;;;;4823577;29;20046;-74
2023/03/28 11:35:16;;;;;;;2.15;1.30;;;8.30;75.60;;;;;;4823450;29;20034;-74
2023/03/28 11:38:02;;;;;;;5.20;1.42;;;8.10;75.80;;;;;;4823303;29;20042;-72
2023/03/28 11:40:42;;;;;;;2.58;1.60;;;8.20;75.80;;;;;;4823528;29;20046;-73
2023/03/28 11:43:16;;;;;;;7.25;1.60;;;8.40;76.80;;;;;;4823300;29;20077;-73
2023/03/28 11:45:51;;;;;;;5.75;1.92;;;8.60;78.40;;;;;;4823240;29;20440;-73
2023/03/28 11:48:25;;;;;;;3.00;1.77;;;8.50;76.20;;;;;;4823032;29;20038;-73
2023/03/28 11:51:03;;;;;;;3.08;1.58;;;8.50;73.40;;;;;;4830729;29;20498;-74
2023/03/28 11:53:54;;;;;;;2.08;1.20;;;8.70;76.00;;;;;;4844869;29;20465;-73
2023/03/28 11:56:34;;;;;;;2.60;1.60;;;8.80;73.30;;;;;;4844567;29;20149;-73
2023/03/28 11:59:13;;;;;;;4.75;1.20;;;8.80;75.90;;;;;;4845008;29;20804;-73
2023/03/28 12:01:46;;;;;;;3.83;1.83;;;8.80;72.40;;;;;;4844781;29;20089;-74
2023/03/28 12:04:24;;;;;;;5.47;2.10;;;8.40;74.10;;;;;;4859719;29;20470;-74
2023/03/28 12:07:09;;;;;;;5.82;1.85;;;8.00;72.00;;;;;;4860437;29;20116;-73
2023/03/28 12:10:02;;;;;;;3.42;1.17;;;7.90;73.30;;;;;;4921126;29;20047;-73
2023/03/28 12:13:07;;;;;;;3.20;1.30;;;8.00;72.70;;;;;;4935614;29;20032;-73
2023/03/28 12:15:49;;;;;;;3.08;1.38;;;8.10;75.00;;;;;;4933164;29;20047;-72
2023/03/28 12:18:41;;;;;;;1.77;1.13;;;7.90;73.10;;;;;;4935294;29;20491;-73
2023/03/28 12:21:18;;;;;;;2.30;1.13;;;8.10;74.90;;;;;;4940733;29;20038;-72
2023/03/28 12:24:12;;;;;;;2.83;1.50;;;8.40;75.90;;;;;;4935504;29;20035;-72
2023/03/28 12:26:47;;;;;;;6.03;1.58;;;8.40;74.60;;;;;;4951228;29;20494;-73
2023/03/28 12:29:27;;;;;;;8.35;1.45;;;8.60;74.60;;;;;;4935447;29;20543;-74
2023/03/28 12:32:15;;;;;;;1.67;0.90;;;8.70;72.20;;;;;;4934497;29;20283;-72
2023/03/28 12:35:12;;;;;;;4.22;1.80;;;8.50;70.50;;;;;;4935197;29;20032;-74
2023/03/28 12:38:28;;;;;;;8.10;1.95;;;8.30;74.50;;;;;;4936540;29;20036;-73
2023/03/28 12:41:13;;;;;;;1.48;0.82;;;7.80;78.00;;;;;;4939325;28;20053;-74
2023/03/28 12:43:45;;;;;;;5.50;2.70;;;7.90;77.10;;;;;;4954133;29;20043;-72
2023/03/28 12:46:22;;;;;;;5.97;3.00;;;8.00;77.10;;;;;;4954081;29;20035;-73
2023/03/28 12:49:03;;;;;;;3.88;1.88;;;8.30;77.40;;;;;;4954042;29;20042;-73
2023/03/28 12:51:38;;;;;;;1.92;1.10;;;8.60;79.60;;;;;;4954058;29;20079;-73
2023/03/28 12:54:23;;;;;;;2.47;1.30;;;8.90;75.60;;;;;;4954428;29;20027;-74
2023/03/28 12:57:07;;;;;;;4.07;1.10;;;9.10;73.10;;;;;;4953912;29;20121;-72
2023/03/28 12:59:55;;;;;;;1.20;0.93;;;9.20;71.90;;;;;;4969919;28;20035;-73
2023/03/28 13:03:00;;;;;;;2.03;1.27;;;9.40;72.30;;;;;;4953748;29;20506;-74
2023/03/28 13:05:48;;;;;;;1.80;1.00;;;9.40;67.80;;;;;;4954969;29;20128;-72
2023/03/28 13:08:23;;;;;;;1.58;1.00;;;9.30;68.40;;;;;;4944754;29;20039;-72
2023/03/28 13:10:58;;;;;;;2.10;1.05;;;9.00;67.70;;;;;;4954935;29;20032;-72
2023/03/28 13:13:52;;;;;;;2.47;1.02;;;8.70;69.40;;;;;;4954980;29;20131;-72
2023/03/28 13:16:24;;;;;;;8.77;1.38;;;8.40;72.10;;;;;;4954976;29;20029;-73
2023/03/28 13:19:05;;;;;;;4.63;1.20;;;7.90;73.10;;;;;;4957630;28;20363;-73
2023/03/28 13:21:59;;;;;;;6.03;2.15;;;7.80;74.90;;;;;;4956980;28;20039;-73
2023/03/28 13:24:30;;;;;;;7.15;2.80;;;6.90;85.50;;;;;;4950752;28;20042;-73
2023/03/28 13:27:26;;;;;;;3.22;2.20;;;6.40;88.70;;;;;;4954671;29;20035;-73
2023/03/28 13:30:05;;;;;;;4.07;2.00;;;6.10;90.70;;;;;;4939896;29;20030;-72
2023/03/28 13:32:41;;;;;;;15.30;6.57;;;6.60;90.90;;;;;;4941362;29;20032;-71
2023/03/28 13:35:27;;;;;;;4.47;1.80;;;7.00;91.50;;;;;;4942590;29;20497;-71
2023/03/28 13:37:52;;;;;;;5.22;2.63;;;7.20;89.50;;;;;;4941089;29;20078;-71
2023/03/28 13:40:50;;;;;;;4.63;2.17;;;7.40;83.00;;;;;;4942893;29;20023;-73
2023/03/28 13:43:30;;;;;;;6.10;3.17;;;7.60;81.50;;;;;;4943419;29;20039;-72
2023/03/28 13:46:27;;;;;;;7.18;3.30;;;8.00;85.10;;;;;;4947235;29;20038;-70
2023/03/28 13:49:02;;;;;;;4.55;2.10;;;8.10;80.60;;;;;;4942375;29;20051;-71